createdAt,value
2022-09-25T00:00:24.692Z,43.75
2022-09-25T00:01:27.982Z,46.97
2022-09-25T00:02:31.052Z,44.80
2022-09-25T00:03:34.697Z,42.00
2022-09-25T00:04:37.866Z,45.90
2022-09-25T00:05:43.408Z,41.10
2022-09-25T00:06:49.207Z,38.05
2022-09-25T00:07:52.181Z,40.72
2022-09-25T00:08:56.877Z,42.90
2022-09-25T00:09:59.777Z,40.15
2022-09-25T00:11:23.983Z,44.30
2022-09-25T00:12:27.264Z,37.10
2022-09-25T00:13:30.419Z,41.47
2022-09-25T00:14:33.647Z,45.03
2022-09-25T00:15:37.335Z,39.83
2022-09-25T00:16:40.478Z,46.22
2022-09-25T00:17:43.650Z,38.35
2022-09-25T00:19:05.450Z,43.55
2022-09-25T00:20:09.479Z,41.03
2022-09-25T00:21:15.470Z,39.75
2022-09-25T00:22:24.779Z,37.40
2022-09-25T00:23:27.816Z,35.85
2022-09-25T00:24:32.163Z,33.50
2022-09-25T00:25:35.330Z,42.03
2022-09-25T00:26:42.369Z,35.20
2022-09-25T00:27:46.039Z,35.97
2022-09-25T00:28:49.063Z,46.42
2022-09-25T00:29:53.300Z,36.78
2022-09-25T00:30:57.017Z,38.65
2022-09-25T00:32:00.015Z,39.50
2022-09-25T00:33:02.909Z,43.35
2022-09-25T00:34:06.469Z,35.75
2022-09-25T00:35:09.903Z,41.00
2022-09-25T00:36:12.761Z,38.47
2022-09-25T00:37:15.769Z,47.00
2022-09-25T00:38:18.604Z,42.05
2022-09-25T00:39:21.721Z,41.00
2022-09-25T00:40:24.896Z,45.03
2022-09-25T00:41:31.621Z,41.70
2022-09-25T00:42:36.474Z,39.38
2022-09-25T00:43:44.795Z,35.95
2022-09-25T00:44:52.341Z,37.33
2022-09-25T00:45:55.461Z,39.28
2022-09-25T00:46:59.134Z,42.80
2022-09-25T00:48:07.369Z,35.90
2022-09-25T00:49:14.869Z,43.15
2022-09-25T00:50:25.932Z,38.30
2022-09-25T00:51:38.598Z,35.53
2022-09-25T00:52:42.591Z,38.55
2022-09-25T00:53:45.674Z,36.55
2022-09-25T00:55:05.531Z,39.58
2022-09-25T00:56:13.018Z,45.70
2022-09-25T00:57:20.957Z,39.10
2022-09-25T00:58:27.891Z,38.13
2022-09-25T00:59:39.885Z,43.22
2022-09-25T01:00:42.863Z,48.60
2022-09-25T01:01:47.337Z,43.03
2022-09-25T01:02:55.307Z,41.58
2022-09-25T01:03:59.575Z,46.47
2022-09-25T01:05:08.539Z,42.00
2022-09-25T01:06:12.998Z,44.50
2022-09-25T01:07:16.893Z,40.53
2022-09-25T01:08:25.970Z,38.50
2022-09-25T01:09:29.684Z,44.97
2022-09-25T01:10:33.308Z,45.30
2022-09-25T01:11:36.827Z,43.25
2022-09-25T01:12:43.988Z,38.92
2022-09-25T01:13:47.357Z,37.42
2022-09-25T01:14:50.275Z,39.90
2022-09-25T01:16:24.171Z,36.33
2022-09-25T01:17:44.100Z,38.90
2022-09-25T01:19:08.475Z,35.25
2022-09-25T01:20:23.106Z,37.83
2022-09-25T01:22:09.979Z,39.28
2022-09-25T01:23:41.316Z,36.67
2022-09-25T01:27:02.336Z,43.15
2022-09-25T01:28:20.533Z,36.90
2022-09-25T01:29:44.894Z,32.53
2022-09-25T01:30:56.039Z,32.20
2022-09-25T01:32:23.795Z,33.83
2022-09-25T01:33:41.865Z,41.78
2022-09-25T01:35:01.468Z,38.15
2022-09-25T01:36:22.987Z,39.10
2022-09-25T01:37:53.222Z,37.10
2022-09-25T01:39:46.015Z,38.15
2022-09-25T01:41:03.185Z,34.38
2022-09-25T01:42:23.436Z,35.67
2022-09-25T01:43:44.116Z,37.13
2022-09-25T01:44:56.463Z,30.38
2022-09-25T01:46:29.102Z,37.85
2022-09-25T01:47:40.493Z,38.83
2022-09-25T01:48:47.693Z,33.10
2022-09-25T01:49:59.401Z,43.80
2022-09-25T01:51:29.553Z,40.05
2022-09-25T01:52:42.523Z,36.97
2022-09-25T01:53:55.403Z,37.97
2022-09-25T01:55:16.382Z,38.53
2022-09-25T01:56:33.212Z,32.55
2022-09-25T01:57:49.860Z,42.45
2022-09-25T01:59:06.021Z,37.22
2022-09-25T02:00:19.797Z,31.52
2022-09-25T02:01:32.246Z,33.88
2022-09-25T02:02:46.727Z,31.38
2022-09-25T02:04:03.624Z,34.92
2022-09-25T02:05:17.782Z,41.63
2022-09-25T02:06:22.051Z,32.60
2022-09-25T02:07:35.594Z,35.88
2022-09-25T02:08:48.648Z,30.38
2022-09-25T02:10:02.812Z,39.40
2022-09-25T02:11:07.331Z,32.92
2022-09-25T02:12:19.174Z,30.95
2022-09-25T02:13:26.437Z,35.05
2022-09-25T02:15:13.845Z,32.80
2022-09-25T02:16:25.574Z,36.45
2022-09-25T02:18:12.805Z,38.88
2022-09-25T02:19:36.432Z,37.53
2022-09-25T02:20:42.527Z,32.55
2022-09-25T02:22:26.376Z,33.55
2022-09-25T02:23:54.117Z,26.27
2022-09-25T02:25:11.673Z,33.47
2022-09-25T02:26:29.275Z,35.03
2022-09-25T02:27:34.230Z,33.78
2022-09-25T02:28:37.407Z,29.40
2022-09-25T02:29:40.744Z,28.83
2022-09-25T02:30:45.474Z,34.40
2022-09-25T02:31:57.238Z,33.17
2022-09-25T02:33:00.250Z,35.10
2022-09-25T02:34:04.657Z,31.42
2022-09-25T02:35:08.167Z,29.40
2022-09-25T02:36:20.988Z,32.47
2022-09-25T02:37:24.220Z,34.45
2022-09-25T02:38:28.051Z,29.02
2022-09-25T02:39:31.480Z,31.30
2022-09-25T02:40:44.543Z,30.60
2022-09-25T02:41:56.479Z,32.60
2022-09-25T02:43:23.811Z,35.90
2022-09-25T02:45:06.830Z,32.55
2022-09-25T02:46:42.921Z,34.67
2022-09-25T02:48:23.444Z,27.63
2022-09-25T02:49:54.453Z,34.42
2022-09-25T02:51:12.470Z,32.90
2022-09-25T02:52:28.149Z,41.25
2022-09-25T02:53:55.314Z,30.27
2022-09-25T02:55:12.523Z,32.22
2022-09-25T02:56:34.150Z,27.15
2022-09-25T02:57:56.949Z,32.67
2022-09-25T02:59:08.933Z,30.52
2022-09-25T03:00:13.445Z,33.05
2022-09-25T03:01:19.184Z,31.08
2022-09-25T03:02:24.312Z,32.97
2022-09-25T03:03:28.488Z,32.20
2022-09-25T03:04:38.977Z,36.22
2022-09-25T03:05:43.142Z,31.88
2022-09-25T03:06:47.347Z,27.92
2022-09-25T03:08:09.075Z,33.58
2022-09-25T03:09:15.594Z,32.70
2022-09-25T03:10:19.781Z,30.20
2022-09-25T03:11:27.053Z,35.67
2022-09-25T03:12:37.111Z,32.78
2022-09-25T03:13:41.585Z,33.22
2022-09-25T03:14:44.603Z,27.00
2022-09-25T03:16:03.177Z,28.73
2022-09-25T03:17:08.342Z,27.92
2022-09-25T03:18:13.976Z,27.90
2022-09-25T03:19:20.051Z,31.88
2022-09-25T03:20:22.979Z,31.88
2022-09-25T03:21:26.069Z,28.80
2022-09-25T03:22:29.051Z,29.88
2022-09-25T03:23:32.585Z,28.13
2022-09-25T03:24:35.672Z,31.52
2022-09-25T03:25:39.515Z,31.98
2022-09-25T03:26:42.818Z,28.33
2022-09-25T03:27:47.959Z,28.70
2022-09-25T03:28:52.263Z,35.40
2022-09-25T03:29:55.446Z,29.17
2022-09-25T03:31:07.678Z,30.65
2022-09-25T03:32:10.655Z,29.38
2022-09-25T03:33:13.867Z,33.78
2022-09-25T03:34:19.091Z,29.60
2022-09-25T03:35:22.188Z,29.17
2022-09-25T03:36:28.520Z,29.48
2022-09-25T03:37:32.502Z,27.80
2022-09-25T03:38:35.809Z,30.98
2022-09-25T03:39:38.881Z,27.40
2022-09-25T03:40:42.066Z,28.05
2022-09-25T03:41:45.710Z,29.88
2022-09-25T03:42:48.751Z,27.35
2022-09-25T03:43:52.325Z,30.05
2022-09-25T03:44:55.210Z,27.70
2022-09-25T03:45:58.196Z,32.10
2022-09-25T03:47:01.155Z,31.90
2022-09-25T03:48:04.273Z,27.73
2022-09-25T03:49:08.200Z,31.17
2022-09-25T03:50:11.315Z,28.05
2022-09-25T03:51:15.107Z,27.55
2022-09-25T03:52:18.686Z,31.80
2022-09-25T03:53:21.970Z,30.45
2022-09-25T03:54:24.941Z,26.80
2022-09-25T03:55:27.860Z,27.70
2022-09-25T03:56:30.929Z,31.08
2022-09-25T03:57:34.267Z,33.53
2022-09-25T03:58:37.980Z,29.45
2022-09-25T03:59:41.186Z,29.55
2022-09-25T04:00:46.793Z,35.20
2022-09-25T04:01:49.823Z,32.70
2022-09-25T04:02:53.247Z,33.33
2022-09-25T04:03:56.440Z,33.53
2022-09-25T04:04:59.850Z,33.80
2022-09-25T04:06:06.189Z,28.08
2022-09-25T04:07:09.139Z,29.60
2022-09-25T04:08:12.140Z,35.00
2022-09-25T04:09:15.064Z,31.85
2022-09-25T04:10:18.057Z,36.15
2022-09-25T04:11:24.155Z,27.23
2022-09-25T04:12:27.143Z,31.35
2022-09-25T04:13:33.766Z,31.20
2022-09-25T04:14:36.967Z,30.00
2022-09-25T04:15:42.013Z,38.83
2022-09-25T04:16:45.587Z,33.97
2022-09-25T04:17:49.197Z,32.90
2022-09-25T04:18:52.083Z,36.17
2022-09-25T04:19:55.493Z,29.65
2022-09-25T04:21:04.729Z,35.22
2022-09-25T04:22:07.880Z,27.60
2022-09-25T04:23:10.902Z,33.40
2022-09-25T04:24:32.312Z,26.30
2022-09-25T04:25:35.474Z,32.80
2022-09-25T04:26:38.436Z,34.88
2022-09-25T04:27:41.590Z,35.17
2022-09-25T04:28:45.470Z,31.48
2022-09-25T04:29:49.853Z,33.72
2022-09-25T04:30:53.240Z,30.52
2022-09-25T04:32:14.697Z,33.58
2022-09-25T04:33:37.444Z,27.63
2022-09-25T04:34:40.483Z,32.47
2022-09-25T04:35:43.495Z,33.92
2022-09-25T04:36:46.365Z,30.50
2022-09-25T04:37:49.535Z,30.83
2022-09-25T04:38:52.575Z,29.73
2022-09-25T04:39:58.562Z,33.92
2022-09-25T04:41:02.693Z,29.92
2022-09-25T04:42:06.210Z,30.05
2022-09-25T04:43:09.136Z,27.40
2022-09-25T04:44:12.473Z,29.80
2022-09-25T04:45:16.080Z,27.90
2022-09-25T04:46:22.352Z,33.38
2022-09-25T04:47:30.251Z,31.00
2022-09-25T04:48:34.235Z,30.45
2022-09-25T04:49:38.638Z,27.17
2022-09-25T04:50:51.716Z,28.20
2022-09-25T04:51:54.610Z,35.58
2022-09-25T04:52:58.722Z,33.22
2022-09-25T04:54:01.716Z,31.52
2022-09-25T04:55:05.284Z,30.35
2022-09-25T04:56:14.670Z,29.90
2022-09-25T04:57:45.500Z,23.73
2022-09-25T04:58:46.533Z,30.77
2022-09-25T04:59:50.999Z,30.10
2022-09-25T05:00:54.042Z,32.28
2022-09-25T05:01:57.156Z,32.08
2022-09-25T05:03:05.459Z,31.08
2022-09-25T05:04:08.978Z,34.03
2022-09-25T05:05:12.252Z,31.20
2022-09-25T05:06:15.178Z,30.25
2022-09-25T05:07:18.109Z,34.75
2022-09-25T05:08:20.978Z,31.98
2022-09-25T05:09:23.955Z,26.77
2022-09-25T05:10:30.830Z,30.50
2022-09-25T05:11:33.743Z,33.00
2022-09-25T05:12:36.953Z,29.33
2022-09-25T05:13:40.194Z,32.38
2022-09-25T05:14:44.137Z,29.15
2022-09-25T05:15:47.402Z,31.63
2022-09-25T05:16:50.597Z,31.73
2022-09-25T05:18:13.209Z,29.20
2022-09-25T05:19:16.512Z,37.33
2022-09-25T05:20:19.763Z,32.65
2022-09-25T05:21:23.057Z,28.83
2022-09-25T05:22:26.009Z,35.28
2022-09-25T05:23:29.032Z,30.13
2022-09-25T05:24:31.937Z,30.70
2022-09-25T05:25:35.075Z,35.88
2022-09-25T05:26:38.152Z,31.95
2022-09-25T05:27:41.243Z,36.13
2022-09-25T05:28:44.255Z,29.48
2022-09-25T05:29:47.380Z,29.58
2022-09-25T05:30:50.889Z,30.45
2022-09-25T05:31:53.871Z,31.05
2022-09-25T05:33:00.252Z,27.13
2022-09-25T05:34:03.403Z,32.25
2022-09-25T05:35:07.867Z,30.98
2022-09-25T05:36:11.401Z,34.10
2022-09-25T05:37:14.237Z,32.17
2022-09-25T05:38:17.213Z,33.50
2022-09-25T05:39:20.468Z,36.03
2022-09-25T05:40:24.359Z,27.88
2022-09-25T05:41:27.520Z,37.40
2022-09-25T05:42:31.228Z,31.15
2022-09-25T05:43:39.974Z,30.50
2022-09-25T05:44:42.880Z,29.95
2022-09-25T05:45:54.108Z,32.35
2022-09-25T05:46:57.183Z,36.45
2022-09-25T05:48:06.462Z,33.45
2022-09-25T05:49:09.465Z,34.50
2022-09-25T05:50:15.841Z,31.48
2022-09-25T05:51:18.754Z,28.63
2022-09-25T05:52:21.729Z,35.00
2022-09-25T05:53:25.938Z,33.80
2022-09-25T05:54:29.130Z,28.75
2022-09-25T05:55:32.621Z,31.75
2022-09-25T05:56:35.610Z,33.00
2022-09-25T05:57:39.049Z,28.25
2022-09-25T05:58:41.940Z,29.80
2022-09-25T05:59:44.849Z,31.42
2022-09-25T06:00:48.323Z,29.55
2022-09-25T06:01:51.920Z,33.92
2022-09-25T06:02:54.905Z,30.65
2022-09-25T06:03:57.981Z,28.50
2022-09-25T06:05:01.056Z,27.75
2022-09-25T06:06:05.384Z,31.42
2022-09-25T06:07:10.097Z,34.08
2022-09-25T06:08:14.089Z,32.10
2022-09-25T06:09:17.131Z,25.83
2022-09-25T06:10:20.134Z,29.52
2022-09-25T06:11:22.986Z,28.40
2022-09-25T06:12:25.999Z,28.45
2022-09-25T06:13:33.631Z,27.77
2022-09-25T06:14:37.328Z,34.50
2022-09-25T06:15:42.200Z,28.88
2022-09-25T06:16:50.573Z,30.88
2022-09-25T06:17:54.270Z,33.20
2022-09-25T06:18:57.214Z,33.55
2022-09-25T06:20:00.249Z,32.45
2022-09-25T06:21:05.556Z,30.17
2022-09-25T06:22:09.343Z,26.98
2022-09-25T06:23:12.548Z,25.73
2022-09-25T06:24:15.422Z,27.58
2022-09-25T06:25:19.224Z,25.80
2022-09-25T06:26:23.989Z,26.95
2022-09-25T06:27:27.446Z,25.70
2022-09-25T06:28:31.282Z,26.10
2022-09-25T06:29:34.298Z,25.50
2022-09-25T06:30:38.793Z,29.80
2022-09-25T06:31:41.967Z,24.60
2022-09-25T06:32:45.194Z,28.67
2022-09-25T06:33:51.416Z,23.30
2022-09-25T06:34:54.250Z,25.30
2022-09-25T06:35:57.528Z,29.27
2022-09-25T06:37:01.896Z,29.02
2022-09-25T06:38:05.450Z,28.33
2022-09-25T06:39:08.766Z,27.58
2022-09-25T06:40:11.691Z,28.88
2022-09-25T06:41:14.617Z,28.35
2022-09-25T06:42:17.672Z,31.70
2022-09-25T06:43:20.502Z,29.48
2022-09-25T06:44:23.590Z,30.90
2022-09-25T06:45:29.152Z,33.05
2022-09-25T06:46:32.204Z,29.85
2022-09-25T06:47:35.135Z,27.52
2022-09-25T06:48:38.172Z,26.98
2022-09-25T06:49:41.199Z,28.05
2022-09-25T06:50:53.901Z,26.20
2022-09-25T06:51:56.968Z,23.00
2022-09-25T06:53:00.824Z,24.75
2022-09-25T06:54:03.777Z,22.75
2022-09-25T06:55:07.579Z,23.90
2022-09-25T06:56:10.590Z,25.40
2022-09-25T06:57:13.514Z,21.33
2022-09-25T06:58:21.207Z,28.52
2022-09-25T06:59:25.965Z,23.25
2022-09-25T07:00:28.978Z,23.67
2022-09-25T07:01:32.072Z,23.10
2022-09-25T07:02:53.984Z,24.33
2022-09-25T07:03:57.035Z,26.02
2022-09-25T07:05:00.574Z,25.52
2022-09-25T07:06:06.469Z,22.95
2022-09-25T07:07:09.268Z,24.27
2022-09-25T07:08:14.034Z,24.17
2022-09-25T07:09:17.011Z,23.42
2022-09-25T07:10:20.059Z,23.20
2022-09-25T07:11:26.755Z,19.73
2022-09-25T07:12:29.815Z,19.52
2022-09-25T07:13:35.657Z,23.45
2022-09-25T07:14:38.782Z,20.65
2022-09-25T07:15:41.826Z,21.83
2022-09-25T07:16:44.855Z,21.65
2022-09-25T07:17:47.900Z,23.45
2022-09-25T07:18:53.517Z,19.85
2022-09-25T07:19:56.481Z,19.35
2022-09-25T07:21:05.964Z,21.02
2022-09-25T07:22:08.972Z,20.83
2022-09-25T07:23:11.796Z,18.25
2022-09-25T07:24:15.011Z,17.60
2022-09-25T07:25:17.959Z,19.38
2022-09-25T07:26:27.565Z,17.98
2022-09-25T07:27:30.807Z,16.67
2022-09-25T07:28:34.173Z,19.75
2022-09-25T07:29:37.477Z,15.57
2022-09-25T07:30:42.403Z,16.13
2022-09-25T07:31:45.780Z,15.20
2022-09-25T07:32:48.636Z,19.27
2022-09-25T07:33:51.858Z,18.27
2022-09-25T07:34:55.186Z,16.98
2022-09-25T07:36:01.423Z,15.93
2022-09-25T07:37:04.601Z,16.08
2022-09-25T07:38:07.413Z,13.40
2022-09-25T07:39:12.654Z,14.55
2022-09-25T07:40:19.036Z,13.90
2022-09-25T07:41:23.878Z,13.55
2022-09-25T07:42:27.142Z,13.60
2022-09-25T07:43:30.103Z,15.95
2022-09-25T07:44:37.832Z,14.90
2022-09-25T07:45:42.047Z,20.23
2022-09-25T07:46:46.388Z,13.70
2022-09-25T07:47:49.463Z,13.93
2022-09-25T07:48:52.564Z,13.20
2022-09-25T07:49:55.783Z,13.82
2022-09-25T07:51:11.248Z,14.52
2022-09-25T07:52:14.426Z,14.10
2022-09-25T07:53:20.838Z,12.77
2022-09-25T07:54:25.003Z,14.90
2022-09-25T07:55:28.685Z,13.45
2022-09-25T07:56:34.386Z,11.90
2022-09-25T07:57:37.404Z,11.07
2022-09-25T07:58:40.960Z,12.82
2022-09-25T07:59:44.167Z,14.18
2022-09-25T08:00:47.134Z,13.35
2022-09-25T08:01:53.950Z,12.15
2022-09-25T08:02:59.115Z,13.50
2022-09-25T08:04:02.502Z,14.38
2022-09-25T08:05:06.289Z,16.42
2022-09-25T08:06:13.372Z,11.55
2022-09-25T08:07:16.421Z,12.35
2022-09-25T08:08:19.528Z,12.77
2022-09-25T08:09:22.539Z,15.95
2022-09-25T08:10:26.011Z,12.38
2022-09-25T08:11:29.322Z,11.63
2022-09-25T08:12:32.475Z,11.85
2022-09-25T08:13:38.268Z,12.95
2022-09-25T08:14:42.118Z,13.10
2022-09-25T08:15:45.157Z,11.80
2022-09-25T08:16:49.382Z,11.07
2022-09-25T08:17:52.916Z,11.77
2022-09-25T08:18:55.946Z,11.30
2022-09-25T08:20:01.332Z,12.07
2022-09-25T08:21:05.714Z,12.32
2022-09-25T08:22:08.726Z,12.38
2022-09-25T08:23:11.571Z,13.85
2022-09-25T08:24:14.462Z,13.02
2022-09-25T08:25:17.421Z,10.45
2022-09-25T08:26:21.710Z,9.57
2022-09-25T08:27:24.738Z,9.93
2022-09-25T08:28:28.390Z,13.23
2022-09-25T08:29:31.770Z,11.88
2022-09-25T08:30:35.012Z,10.80
2022-09-25T08:31:38.244Z,9.63
2022-09-25T08:32:41.118Z,9.30
2022-09-25T08:33:49.567Z,9.63
2022-09-25T08:34:52.702Z,10.18
2022-09-25T08:36:04.839Z,11.95
2022-09-25T08:37:08.401Z,8.85
2022-09-25T08:38:12.519Z,8.45
2022-09-25T08:39:15.450Z,10.93
2022-09-25T08:40:23.774Z,10.98
2022-09-25T08:41:34.534Z,10.57
2022-09-25T08:42:38.468Z,8.98
2022-09-25T08:43:55.834Z,15.00
2022-09-25T08:45:22.331Z,10.20
2022-09-25T08:46:58.003Z,11.52
2022-09-25T08:48:19.690Z,9.57
2022-09-25T08:49:26.631Z,9.10
2022-09-25T08:50:30.135Z,11.02
2022-09-25T08:51:47.405Z,9.63
2022-09-25T08:52:59.197Z,10.93
2022-09-25T08:54:04.289Z,11.68
2022-09-25T08:55:51.054Z,12.13
2022-09-25T08:57:07.360Z,8.98
2022-09-25T08:58:13.102Z,10.82
2022-09-25T08:59:26.273Z,9.00
2022-09-25T09:00:30.344Z,8.65
2022-09-25T09:02:02.278Z,10.90
2022-09-25T09:03:08.867Z,10.38
2022-09-25T09:04:29.558Z,8.77
2022-09-25T09:05:40.703Z,9.50
2022-09-25T09:06:49.695Z,8.43
2022-09-25T09:08:06.269Z,8.23
2022-09-25T09:09:26.531Z,9.40
2022-09-25T09:10:42.756Z,11.80
2022-09-25T09:12:19.942Z,7.95
2022-09-25T09:13:49.685Z,8.05
2022-09-25T09:15:07.111Z,6.85
2022-09-25T09:16:27.452Z,7.57
2022-09-25T09:17:42.413Z,7.07
2022-09-25T09:18:45.713Z,9.73
2022-09-25T09:19:55.127Z,6.50
2022-09-25T09:21:25.551Z,6.75
2022-09-25T09:23:55.501Z,5.80
2022-09-25T09:25:29.099Z,5.60
2022-09-25T09:26:43.713Z,6.35
2022-09-25T09:28:27.483Z,5.78
2022-09-25T09:29:48.229Z,5.47
2022-09-25T09:31:23.365Z,5.13
2022-09-25T09:32:43.103Z,4.68
2022-09-25T09:34:36.158Z,3.88
2022-09-25T09:36:20.473Z,4.38
2022-09-25T09:37:45.930Z,5.25
2022-09-25T09:39:14.869Z,3.67
2022-09-25T09:40:37.047Z,4.65
2022-09-25T09:42:05.107Z,6.00
2022-09-25T09:43:29.391Z,4.03
2022-09-25T09:45:17.795Z,4.35
2022-09-25T09:46:42.498Z,4.38
2022-09-25T09:48:16.502Z,4.45
2022-09-25T09:49:57.102Z,4.57
2022-09-25T09:51:11.897Z,4.70
2022-09-25T09:52:32.753Z,4.78
2022-09-25T09:53:52.534Z,3.08
2022-09-25T09:55:09.719Z,4.03
2022-09-25T09:56:32.530Z,4.40
2022-09-25T09:57:51.482Z,5.38
2022-09-25T09:59:06.517Z,3.63
2022-09-25T10:00:17.227Z,7.57
2022-09-25T10:01:40.714Z,6.28
2022-09-25T10:03:04.050Z,3.63
2022-09-25T10:04:30.045Z,3.40
2022-09-25T10:05:43.483Z,5.05
2022-09-25T10:06:56.089Z,3.97
2022-09-25T10:07:59.180Z,3.42
2022-09-25T10:09:02.539Z,4.22
2022-09-25T10:10:17.498Z,2.72
2022-09-25T10:11:22.271Z,5.30
2022-09-25T10:12:32.873Z,4.25
2022-09-25T10:13:41.191Z,2.53
2022-09-25T10:14:48.068Z,4.15
2022-09-25T10:16:16.578Z,6.88
2022-09-25T10:17:21.271Z,2.20
2022-09-25T10:18:31.941Z,3.95
2022-09-25T10:19:48.077Z,3.05
2022-09-25T10:21:15.303Z,1.95
2022-09-25T10:22:23.940Z,2.25
2022-09-25T10:23:36.042Z,2.10
2022-09-25T10:25:02.109Z,1.60
2022-09-25T10:26:38.044Z,2.30
2022-09-25T10:27:49.097Z,2.45
2022-09-25T10:28:53.512Z,2.13
2022-09-25T10:30:11.858Z,2.65
2022-09-25T10:31:18.096Z,2.72
2022-09-25T10:32:21.974Z,2.13
2022-09-25T10:33:28.718Z,1.98
2022-09-25T10:34:32.605Z,2.60
2022-09-25T10:35:38.326Z,1.85
2022-09-25T10:36:46.070Z,2.08
2022-09-25T10:37:53.841Z,1.92
2022-09-25T10:39:17.712Z,2.97
2022-09-25T10:40:39.506Z,3.28
2022-09-25T10:41:44.851Z,4.53
2022-09-25T10:42:48.625Z,2.58
2022-09-25T10:44:01.116Z,2.60
2022-09-25T10:45:22.793Z,1.90
2022-09-25T10:46:53.678Z,3.00
2022-09-25T10:48:16.081Z,2.47
2022-09-25T10:49:44.075Z,3.05
2022-09-25T10:51:09.687Z,4.88
2022-09-25T10:52:22.402Z,3.67
2022-09-25T10:53:30.588Z,2.03
2022-09-25T10:54:37.814Z,3.92
2022-09-25T10:55:51.426Z,3.72
2022-09-25T10:56:56.698Z,2.15
2022-09-25T10:58:11.782Z,2.72
2022-09-25T10:59:23.249Z,3.28
2022-09-25T11:00:27.413Z,3.47
2022-09-25T11:01:44.050Z,4.45
2022-09-25T11:02:48.522Z,2.95
2022-09-25T11:03:57.367Z,3.22
2022-09-25T11:05:02.120Z,3.37
2022-09-25T11:06:21.925Z,3.28
2022-09-25T11:07:27.860Z,2.47
2022-09-25T11:08:38.088Z,3.35
2022-09-25T11:09:45.243Z,3.97
2022-09-25T11:10:57.564Z,3.15
2022-09-25T11:12:41.245Z,2.90
2022-09-25T11:13:52.944Z,4.22
2022-09-25T11:15:02.500Z,3.38
2022-09-25T11:16:11.660Z,4.95
2022-09-25T11:17:51.846Z,3.13
2022-09-25T11:19:24.100Z,3.00
2022-09-25T11:20:31.944Z,5.88
2022-09-25T11:21:51.993Z,3.50
2022-09-25T11:23:41.807Z,3.05
2022-09-25T11:25:23.652Z,3.53
2022-09-25T11:26:42.872Z,3.38
2022-09-25T11:28:16.156Z,3.28
2022-09-25T11:29:35.998Z,5.40
2022-09-25T11:31:11.807Z,3.22
2022-09-25T11:32:59.325Z,4.47
2022-09-25T11:34:28.029Z,3.55
2022-09-25T11:35:57.041Z,3.90
2022-09-25T11:37:35.004Z,3.85
2022-09-25T11:39:14.763Z,3.22
2022-09-25T11:40:50.859Z,4.43
2022-09-25T11:42:15.733Z,5.90
2022-09-25T11:43:58.094Z,6.05
2022-09-25T11:45:19.535Z,5.50
2022-09-25T11:46:50.464Z,4.47
2022-09-25T11:48:23.351Z,4.30
2022-09-25T11:49:41.269Z,4.30
2022-09-25T11:51:07.329Z,6.80
2022-09-25T11:52:42.707Z,6.15
2022-09-25T11:54:25.432Z,5.60
2022-09-25T11:55:34.617Z,5.10
2022-09-25T11:57:11.729Z,3.38
2022-09-25T11:58:42.891Z,5.13
2022-09-25T12:00:16.458Z,6.93
2022-09-25T12:01:55.185Z,5.28
2022-09-25T12:03:19.456Z,3.78
2022-09-25T12:04:56.169Z,4.93
2022-09-25T12:06:21.699Z,9.02
2022-09-25T12:07:43.415Z,3.63
2022-09-25T12:09:07.870Z,5.05
2022-09-25T12:10:43.879Z,4.35
2022-09-25T12:12:27.664Z,5.47
2022-09-25T12:14:03.345Z,6.88
2022-09-25T12:15:43.241Z,4.65
2022-09-25T12:17:07.132Z,6.32
2022-09-25T12:18:22.306Z,4.50
2022-09-25T12:19:36.807Z,6.82
2022-09-25T12:21:01.757Z,3.53
2022-09-25T12:22:40.903Z,5.78
2022-09-25T12:24:15.403Z,7.00
2022-09-25T12:25:35.988Z,5.07
2022-09-25T12:27:03.846Z,4.50
2022-09-25T12:28:29.106Z,5.93
2022-09-25T12:29:55.299Z,3.88
2022-09-25T12:31:39.618Z,4.95
2022-09-25T12:33:39.805Z,4.50
2022-09-25T12:35:34.578Z,5.30
2022-09-25T12:36:49.247Z,8.60
2022-09-25T12:38:05.616Z,4.03
2022-09-25T12:39:32.809Z,7.50
2022-09-25T12:40:55.929Z,4.35
2022-09-25T12:42:25.927Z,4.65
2022-09-25T12:44:01.736Z,8.18
2022-09-25T12:45:37.716Z,5.18
2022-09-25T12:46:49.940Z,5.72
2022-09-25T12:48:26.507Z,4.82
2022-09-25T12:49:36.813Z,4.53
2022-09-25T12:51:05.352Z,4.68
2022-09-25T12:52:38.579Z,3.33
2022-09-25T12:53:56.814Z,4.70
2022-09-25T12:55:13.818Z,4.57
2022-09-25T12:56:46.668Z,4.72
2022-09-25T12:58:21.418Z,6.07
2022-09-25T12:59:56.649Z,5.35
2022-09-25T13:01:24.960Z,5.18
2022-09-25T13:02:54.443Z,4.07
2022-09-25T13:04:48.805Z,6.15
2022-09-25T13:06:27.684Z,4.10
2022-09-25T13:07:49.401Z,4.90
2022-09-25T13:09:27.184Z,4.90
2022-09-25T13:10:52.672Z,5.15
2022-09-25T13:12:17.001Z,4.90
2022-09-25T13:13:25.380Z,5.68
2022-09-25T13:14:56.092Z,5.15
2022-09-25T13:16:01.692Z,6.35
2022-09-25T13:17:04.732Z,5.72
2022-09-25T13:18:23.654Z,6.20
2022-09-25T13:19:30.474Z,7.03
2022-09-25T13:20:37.799Z,5.45
2022-09-25T13:21:43.745Z,5.50
2022-09-25T13:22:46.738Z,5.57
2022-09-25T13:23:53.854Z,7.32
2022-09-25T13:25:16.779Z,7.07
2022-09-25T13:26:30.660Z,5.15
2022-09-25T13:27:43.970Z,5.22
2022-09-25T13:29:05.247Z,5.07
2022-09-25T13:30:29.895Z,4.60
2022-09-25T13:31:38.825Z,3.58
2022-09-25T13:33:03.126Z,3.80
2022-09-25T13:34:14.794Z,5.30
2022-09-25T13:35:21.015Z,4.60
2022-09-25T13:36:25.239Z,7.95
2022-09-25T13:37:38.253Z,5.70
2022-09-25T13:39:04.852Z,4.55
2022-09-25T13:40:39.647Z,4.82
2022-09-25T13:42:07.843Z,5.32
2022-09-25T13:43:30.543Z,4.93
2022-09-25T13:44:43.250Z,4.82
2022-09-25T13:45:48.497Z,6.47
2022-09-25T13:46:51.751Z,7.47
2022-09-25T13:48:08.872Z,5.00
2022-09-25T13:49:35.286Z,5.72
2022-09-25T13:50:43.129Z,4.85
2022-09-25T13:51:46.251Z,5.72
2022-09-25T13:53:09.741Z,5.07
2022-09-25T13:54:12.633Z,6.28
2022-09-25T13:55:20.249Z,5.93
2022-09-25T13:56:46.091Z,5.22
2022-09-25T13:58:01.876Z,4.70
2022-09-25T13:59:12.543Z,8.13
2022-09-25T14:01:40.261Z,5.85
2022-09-25T14:02:46.530Z,7.72
2022-09-25T14:03:50.223Z,4.95
2022-09-25T14:04:53.508Z,4.00
2022-09-25T14:05:57.666Z,4.68
2022-09-25T14:07:27.836Z,4.10
2022-09-25T14:08:34.059Z,9.85
2022-09-25T14:09:45.955Z,6.53
2022-09-25T14:10:54.829Z,4.90
2022-09-25T14:12:03.372Z,4.10
2022-09-25T14:13:07.774Z,5.18
2022-09-25T14:14:32.978Z,4.55
2022-09-25T14:15:41.162Z,5.55
2022-09-25T14:16:49.801Z,5.28
2022-09-25T14:17:56.996Z,4.53
2022-09-25T14:19:03.414Z,12.88
2022-09-25T14:20:46.532Z,6.50
2022-09-25T14:21:51.133Z,7.63
2022-09-25T14:22:58.920Z,9.60
2022-09-25T14:24:25.893Z,5.25
2022-09-25T14:25:33.372Z,5.22
2022-09-25T14:26:36.208Z,6.18
2022-09-25T14:27:39.320Z,6.68
2022-09-25T14:28:48.379Z,3.95
2022-09-25T14:29:51.860Z,4.80
2022-09-25T14:31:37.629Z,4.63
2022-09-25T14:32:59.836Z,6.63
2022-09-25T14:34:20.572Z,4.95
2022-09-25T14:36:01.239Z,5.00
2022-09-25T14:37:32.367Z,5.47
2022-09-25T14:39:27.574Z,7.60
2022-09-25T14:40:46.975Z,6.07
2022-09-25T14:42:14.387Z,9.57
2022-09-25T14:43:59.393Z,12.52
2022-09-25T14:45:34.382Z,9.50
2022-09-25T14:46:37.568Z,12.15
2022-09-25T14:47:44.772Z,12.07
2022-09-25T14:49:18.325Z,8.88
2022-09-25T14:50:30.483Z,9.95
2022-09-25T14:51:44.566Z,9.70
2022-09-25T14:52:50.613Z,6.13
2022-09-25T14:54:04.946Z,6.75
2022-09-25T14:55:15.150Z,7.38
2022-09-25T14:56:20.165Z,7.22
2022-09-25T14:57:33.042Z,7.28
2022-09-25T14:58:38.534Z,5.90
2022-09-25T14:59:51.217Z,9.02
2022-09-25T15:01:00.334Z,6.72
2022-09-25T15:02:04.548Z,11.15
2022-09-25T15:03:14.773Z,8.02
2022-09-25T15:04:34.596Z,5.65
2022-09-25T15:05:37.765Z,5.60
2022-09-25T15:06:40.968Z,4.65
2022-09-25T15:07:46.457Z,5.68
2022-09-25T15:08:49.627Z,5.97
2022-09-25T15:09:56.070Z,5.68
2022-09-25T15:11:12.229Z,4.75
2022-09-25T15:12:24.178Z,6.30
2022-09-25T15:13:33.509Z,6.78
2022-09-25T15:14:36.433Z,7.15
2022-09-25T15:15:40.375Z,4.50
2022-09-25T15:17:02.727Z,8.80
2022-09-25T15:18:12.848Z,5.20
2022-09-25T15:19:24.758Z,7.20
2022-09-25T15:20:32.855Z,5.60
2022-09-25T15:21:37.316Z,4.53
2022-09-25T15:22:42.514Z,8.98
2022-09-25T15:23:45.793Z,9.38
2022-09-25T15:24:54.975Z,7.78
2022-09-25T15:25:59.672Z,6.93
2022-09-25T15:27:06.307Z,4.70
2022-09-25T15:28:15.210Z,6.95
2022-09-25T15:29:21.922Z,6.97
2022-09-25T15:30:28.462Z,5.70
2022-09-25T15:31:37.815Z,7.80
2022-09-25T15:32:41.469Z,9.40
2022-09-25T15:33:44.493Z,7.18
2022-09-25T15:34:47.824Z,7.28
2022-09-25T15:35:58.905Z,11.48
2022-09-25T15:37:26.490Z,8.98
2022-09-25T15:38:38.908Z,8.70
2022-09-25T15:39:44.323Z,5.28
2022-09-25T15:40:56.644Z,5.40
2022-09-25T15:41:59.665Z,6.03